Time;durP1;ratioP1;P1;durP2;ratioP2;P2;SDS_P1;SDS_P2;PMS_P1;PMS_P2;Temp;Humidity;BMP_temperature;BMP_pressure;BME280_temperature;BME280_humidity;BME280_pressure;Samples;Min_cycle;Max_cycle;Signal;HPM_P1;HPM_P2
2021/01/11 00:02:20;;;;;;;29.08;11.98;;;0.20;99.90;;;;;;4964748;28;20034;-77
2021/01/11 00:04:46;;;;;;;24.45;12.00;;;0.30;99.90;;;;;;4971381;28;20142;-76
2021/01/11 00:07:12;;;;;;;26.73;12.23;;;0.30;99.90;;;;;;4977801;28;20039;-76
2021/01/11 00:09:38;;;;;;;26.23;12.02;;;0.30;99.90;;;;;;4991807;28;20045;-76
2021/01/11 00:12:05;;;;;;;21.38;11.23;;;0.20;99.90;;;;;;4961504;28;20185;-76
2021/01/11 00:14:30;;;;;;;25.05;11.55;;;0.20;99.90;;;;;;4977868;28;20057;-75
2021/01/11 00:16:56;;;;;;;24.52;11.57;;;0.20;99.90;;;;;;4969309;28;20088;-76
2021/01/11 00:19:22;;;;;;;24.05;12.23;;;0.30;99.90;;;;;;4969586;28;20030;-77
2021/01/11 00:21:48;;;;;;;25.17;12.32;;;0.30;99.90;;;;;;4974693;28;20026;-76
2021/01/11 00:24:14;;;;;;;26.70;13.90;;;0.20;99.90;;;;;;4974352;28;20073;-75
2021/01/11 00:26:40;;;;;;;27.80;12.23;;;0.20;99.90;;;;;;4966587;28;20031;-76
2021/01/11 00:29:06;;;;;;;24.98;12.48;;;0.20;99.90;;;;;;4972453;28;20034;-76
2021/01/11 00:31:31;;;;;;;22.95;10.73;;;0.20;99.90;;;;;;4966635;28;20415;-76
2021/01/11 00:33:57;;;;;;;23.10;12.38;;;0.20;99.90;;;;;;4975703;28;20080;-76
2021/01/11 00:36:23;;;;;;;22.90;11.10;;;0.30;99.90;;;;;;4972787;28;20023;-76
2021/01/11 00:38:49;;;;;;;24.77;12.18;;;0.30;99.90;;;;;;4986896;28;20039;-77
2021/01/11 00:41:22;;;;;;;26.08;11.85;;;0.50;99.90;;;;;;4974487;28;20856;-76
2021/01/11 00:43:48;;;;;;;24.17;11.70;;;0.40;99.90;;;;;;4972157;28;20121;-76
2021/01/11 00:46:25;;;;;;;22.67;11.20;;;0.50;99.90;;;;;;4977332;28;20039;-76
2021/01/11 00:48:54;;;;;;;22.25;11.23;;;0.50;99.90;;;;;;4949991;28;20093;-76
2021/01/11 00:51:20;;;;;;;25.02;11.90;;;0.50;99.90;;;;;;4956653;28;20097;-76
2021/01/11 00:53:46;;;;;;;28.38;12.25;;;0.50;99.90;;;;;;4979812;28;20505;-76
2021/01/11 00:56:15;;;;;;;25.25;12.13;;;0.40;99.90;;;;;;4981383;28;20034;-76
2021/01/11 00:58:42;;;;;;;26.48;12.82;;;0.40;99.90;;;;;;4999914;28;20027;-76
2021/01/11 01:01:12;;;;;;;24.25;12.15;;;0.40;99.90;;;;;;4958302;28;20055;-76
2021/01/11 01:03:39;;;;;;;25.05;11.93;;;0.40;99.90;;;;;;4984236;28;20109;-76
2021/01/11 01:06:07;;;;;;;26.08;12.25;;;0.50;99.90;;;;;;4976953;28;20062;-76
2021/01/11 01:08:33;;;;;;;21.65;11.38;;;0.50;99.90;;;;;;4994502;28;20034;-76
2021/01/11 01:10:59;;;;;;;21.90;11.25;;;0.50;99.90;;;;;;4992754;28;20064;-75
2021/01/11 01:13:24;;;;;;;22.70;11.68;;;0.50;99.90;;;;;;4982753;28;20034;-75
2021/01/11 01:15:50;;;;;;;24.48;12.40;;;0.50;99.90;;;;;;4972460;28;20034;-75
2021/01/11 01:18:16;;;;;;;23.13;11.25;;;0.50;99.90;;;;;;4982378;28;20108;-76
2021/01/11 01:20:41;;;;;;;23.25;10.65;;;0.60;99.90;;;;;;4964130;28;20025;-77
2021/01/11 01:23:07;;;;;;;21.83;11.10;;;0.50;99.90;;;;;;4979050;28;20504;-76
2021/01/11 01:25:33;;;;;;;24.60;11.55;;;0.50;99.90;;;;;;4981043;28;20121;-76
2021/01/11 01:27:59;;;;;;;22.75;11.15;;;0.50;99.90;;;;;;4967713;28;20093;-76
2021/01/11 01:30:24;;;;;;;21.05;11.05;;;0.50;99.90;;;;;;4956559;28;20034;-76
2021/01/11 01:32:50;;;;;;;23.75;11.40;;;0.50;99.90;;;;;;4980428;28;20031;-76
2021/01/11 01:35:16;;;;;;;22.63;10.73;;;0.60;99.90;;;;;;4978822;28;20022;-76
2021/01/11 01:37:41;;;;;;;20.40;10.35;;;0.60;99.90;;;;;;4975372;28;20492;-75
2021/01/11 01:40:08;;;;;;;23.20;10.18;;;0.60;99.90;;;;;;4981352;28;20039;-76
2021/01/11 01:42:34;;;;;;;23.88;10.88;;;0.50;99.90;;;;;;4975420;28;20562;-76
2021/01/11 01:45:00;;;;;;;19.80;10.13;;;0.50;99.90;;;;;;4968839;28;20042;-78
2021/01/11 01:47:26;;;;;;;20.98;9.93;;;0.60;99.90;;;;;;4963552;28;20460;-77
2021/01/11 01:49:52;;;;;;;19.23;9.70;;;0.60;99.90;;;;;;4956448;28;20047;-76
2021/01/11 01:52:19;;;;;;;20.42;9.75;;;0.50;99.90;;;;;;4985909;28;20084;-76
2021/01/11 01:54:45;;;;;;;17.83;9.63;;;0.50;99.90;;;;;;4981712;28;20031;-76
2021/01/11 01:57:12;;;;;;;19.35;10.35;;;0.50;99.90;;;;;;4985890;28;20097;-77
2021/01/11 01:59:38;;;;;;;20.83;10.27;;;0.60;99.90;;;;;;4969887;28;20053;-76
2021/01/11 02:02:04;;;;;;;19.13;9.25;;;0.70;99.90;;;;;;4987247;28;20483;-77
2021/01/11 02:04:30;;;;;;;19.65;9.35;;;0.70;99.90;;;;;;4973981;28;20042;-77
2021/01/11 02:07:11;;;;;;;22.00;9.50;;;0.60;99.90;;;;;;4948200;29;20035;-77
2021/01/11 02:10:26;;;;;;;18.17;9.27;;;0.60;99.90;;;;;;4948274;28;20122;-77
2021/01/11 02:13:16;;;;;;;19.45;9.30;;;0.60;99.90;;;;;;4955260;28;20582;-76
2021/01/11 02:16:07;;;;;;;19.58;9.57;;;0.60;99.90;;;;;;4973775;28;20041;-76
2021/01/11 02:18:38;;;;;;;17.30;9.18;;;0.60;99.90;;;;;;4954138;28;20073;-76
2021/01/11 02:21:32;;;;;;;26.40;10.70;;;0.60;99.90;;;;;;4970242;28;20073;-76
2021/01/11 02:24:18;;;;;;;19.40;9.32;;;0.70;99.90;;;;;;4953900;28;20046;-76
2021/01/11 02:27:03;;;;;;;16.65;8.95;;;0.70;99.90;;;;;;4978692;28;20046;-78
2021/01/11 02:29:55;;;;;;;19.88;9.35;;;0.70;99.90;;;;;;4987634;28;20322;-77
2021/01/11 02:32:22;;;;;;;19.23;8.95;;;0.70;99.90;;;;;;4968740;28;20395;-76
2021/01/11 02:34:50;;;;;;;20.88;9.95;;;0.80;99.90;;;;;;4982217;28;20038;-76
2021/01/11 02:37:16;;;;;;;20.02;9.30;;;0.70;99.90;;;;;;4982643;28;20031;-77
2021/01/11 02:39:43;;;;;;;20.27;9.82;;;0.70;99.90;;;;;;4980791;28;20084;-77
2021/01/11 02:42:08;;;;;;;19.58;10.02;;;0.70;99.90;;;;;;4987702;28;20069;-76
2021/01/11 02:44:34;;;;;;;20.20;9.18;;;0.80;99.90;;;;;;4970537;28;20070;-76
2021/01/11 02:47:00;;;;;;;18.85;9.30;;;0.70;99.90;;;;;;4975786;28;20078;-76
2021/01/11 02:49:31;;;;;;;22.50;9.77;;;0.80;99.90;;;;;;4973888;28;20030;-76
2021/01/11 02:52:23;;;;;;;20.90;9.82;;;0.80;99.90;;;;;;4963194;28;20031;-76
2021/01/11 02:54:57;;;;;;;17.42;8.95;;;0.80;99.90;;;;;;4955057;28;20047;-76
2021/01/11 02:57:32;;;;;;;17.08;9.25;;;0.80;99.90;;;;;;4979212;28;20034;-77
2021/01/11 03:00:04;;;;;;;19.70;9.50;;;0.80;99.90;;;;;;4979610;28;20088;-77
2021/01/11 03:02:33;;;;;;;18.60;9.43;;;0.70;99.90;;;;;;4982931;28;20034;-77
2021/01/11 03:05:01;;;;;;;23.27;9.65;;;0.70;99.90;;;;;;4981409;28;20474;-77
2021/01/11 03:07:26;;;;;;;19.75;9.60;;;0.70;99.90;;;;;;4972023;28;20043;-77
2021/01/11 03:09:52;;;;;;;19.58;9.85;;;0.70;99.90;;;;;;4974694;28;20100;-76
2021/01/11 03:12:18;;;;;;;20.55;9.90;;;0.70;99.90;;;;;;4971272;28;20645;-76
2021/01/11 03:14:44;;;;;;;26.05;11.32;;;0.70;99.90;;;;;;4981931;28;20046;-76
2021/01/11 03:17:10;;;;;;;22.13;10.38;;;0.60;99.90;;;;;;4956767;28;20121;-76
2021/01/11 03:19:36;;;;;;;21.05;10.82;;;0.50;99.90;;;;;;4957602;28;20073;-77
2021/01/11 03:22:02;;;;;;;19.55;10.30;;;0.50;99.90;;;;;;4973789;28;20128;-77
2021/01/11 03:24:27;;;;;;;20.85;10.63;;;0.50;99.90;;;;;;4956641;28;20034;-76
2021/01/11 03:26:58;;;;;;;20.00;10.15;;;0.50;99.90;;;;;;4973159;28;20041;-75
2021/01/11 03:29:24;;;;;;;21.50;10.43;;;0.40;99.90;;;;;;4973618;28;20038;-76
2021/01/11 03:31:50;;;;;;;20.45;10.93;;;0.40;99.90;;;;;;4977276;28;20096;-76
2021/01/11 03:34:16;;;;;;;19.98;10.38;;;0.40;99.90;;;;;;4967031;28;20781;-80
2021/01/11 03:36:42;;;;;;;26.45;12.32;;;0.40;99.90;;;;;;4962786;28;20031;-76
2021/01/11 03:39:09;;;;;;;23.88;11.13;;;0.30;99.90;;;;;;4958667;28;20039;-76
2021/01/11 03:41:36;;;;;;;22.60;11.73;;;0.30;99.90;;;;;;4962010;28;20035;-76
2021/01/11 03:44:02;;;;;;;22.20;11.43;;;0.30;99.90;;;;;;4976857;28;20035;-77
2021/01/11 03:46:30;;;;;;;23.55;11.65;;;0.20;99.90;;;;;;4960570;28;20043;-76
2021/01/11 03:48:56;;;;;;;22.88;12.20;;;0.20;99.90;;;;;;4963133;28;20045;-77
2021/01/11 03:51:22;;;;;;;21.50;12.20;;;0.20;99.90;;;;;;4981229;28;20038;-76
2021/01/11 03:53:48;;;;;;;23.88;11.48;;;0.20;99.90;;;;;;4968487;28;20034;-77
2021/01/11 03:56:14;;;;;;;21.90;11.48;;;0.30;99.90;;;;;;4963177;28;20152;-76
2021/01/11 03:58:39;;;;;;;23.75;11.48;;;0.20;99.90;;;;;;4975370;28;20053;-76
2021/01/11 04:01:05;;;;;;;19.00;10.40;;;0.20;99.90;;;;;;4972894;28;20061;-76
2021/01/11 04:03:31;;;;;;;20.90;10.90;;;0.30;99.90;;;;;;4995211;28;20141;-76
2021/01/11 04:05:57;;;;;;;23.90;11.18;;;0.30;99.90;;;;;;4972456;28;20062;-76
2021/01/11 04:08:24;;;;;;;21.55;10.93;;;0.30;99.90;;;;;;4972859;28;20022;-76
2021/01/11 04:10:50;;;;;;;24.80;11.30;;;0.30;99.90;;;;;;4976193;28;20096;-76
2021/01/11 04:13:16;;;;;;;20.00;11.40;;;0.30;99.90;;;;;;4965916;28;20038;-76
2021/01/11 04:15:42;;;;;;;24.17;11.48;;;0.30;99.90;;;;;;4964129;28;20498;-77
2021/01/11 04:18:08;;;;;;;21.60;11.27;;;0.40;99.90;;;;;;4983205;28;20024;-77
2021/01/11 04:20:33;;;;;;;20.27;10.73;;;0.30;99.90;;;;;;4940936;28;20819;-76
2021/01/11 04:22:59;;;;;;;23.00;11.05;;;0.30;99.90;;;;;;4925281;28;20676;-77
2021/01/11 04:25:25;;;;;;;22.33;12.05;;;0.40;99.90;;;;;;4941767;28;20039;-79
2021/01/11 04:27:52;;;;;;;22.35;11.23;;;0.40;99.90;;;;;;4973241;28;20031;-77
2021/01/11 04:30:18;;;;;;;22.27;11.32;;;0.40;99.90;;;;;;4975865;28;20031;-77
2021/01/11 04:32:45;;;;;;;23.70;11.75;;;0.40;99.90;;;;;;4940903;28;20488;-77
2021/01/11 04:35:11;;;;;;;23.52;10.52;;;0.40;99.90;;;;;;4949117;28;20031;-77
2021/01/11 04:37:37;;;;;;;26.40;11.45;;;0.50;99.90;;;;;;4960003;28;20066;-77
2021/01/11 04:40:05;;;;;;;21.67;11.13;;;0.40;99.90;;;;;;4985897;28;20034;-77
2021/01/11 04:43:04;;;;;;;18.65;10.63;;;0.40;99.90;;;;;;4961832;28;20038;-77
2021/01/11 04:45:30;;;;;;;19.63;10.45;;;0.40;99.90;;;;;;4967783;28;20058;-77
2021/01/11 04:47:58;;;;;;;24.42;11.93;;;0.50;99.90;;;;;;4958824;28;20057;-78
2021/01/11 04:50:24;;;;;;;20.52;10.70;;;0.50;99.90;;;;;;4959086;28;20081;-77
2021/01/11 04:52:51;;;;;;;19.95;11.00;;;0.50;99.90;;;;;;4979901;28;20045;-77
2021/01/11 04:55:18;;;;;;;25.50;11.02;;;0.40;99.90;;;;;;4985705;28;20065;-77
2021/01/11 04:57:56;;;;;;;24.80;11.88;;;0.40;99.90;;;;;;4971074;28;20030;-77
2021/01/11 05:00:24;;;;;;;26.33;12.82;;;0.50;99.90;;;;;;4990873;28;20043;-77
2021/01/11 05:02:57;;;;;;;24.17;11.85;;;0.50;99.90;;;;;;4985871;28;20809;-78
2021/01/11 05:05:23;;;;;;;22.73;11.55;;;0.50;99.90;;;;;;4991607;28;20056;-76
2021/01/11 05:07:48;;;;;;;21.95;11.23;;;0.50;99.90;;;;;;4985661;28;20085;-77
2021/01/11 05:10:20;;;;;;;22.17;11.05;;;0.50;99.90;;;;;;4985070;28;20458;-77
2021/01/11 05:12:54;;;;;;;21.40;11.70;;;0.50;99.90;;;;;;4985409;28;20038;-77
2021/01/11 05:15:24;;;;;;;20.75;10.88;;;0.60;99.90;;;;;;4970752;28;20073;-77
2021/01/11 05:17:50;;;;;;;24.65;11.98;;;0.60;99.90;;;;;;4960493;28;20133;-77
2021/01/11 05:20:23;;;;;;;21.05;10.90;;;0.60;99.90;;;;;;4959352;28;20129;-77
2021/01/11 05:22:51;;;;;;;23.95;11.38;;;0.50;99.90;;;;;;4953422;28;20112;-77
2021/01/11 05:25:19;;;;;;;22.45;11.65;;;0.50;99.90;;;;;;4971590;28;20050;-77
2021/01/11 05:27:47;;;;;;;20.20;10.70;;;0.60;99.90;;;;;;4976177;28;20443;-77
2021/01/11 05:30:22;;;;;;;20.77;10.77;;;0.50;99.90;;;;;;4975859;28;20136;-77
2021/01/11 05:32:48;;;;;;;22.75;10.75;;;0.60;99.90;;;;;;4985437;28;20042;-77
2021/01/11 05:35:22;;;;;;;22.92;10.77;;;0.50;99.90;;;;;;4983467;28;20192;-76
2021/01/11 05:37:48;;;;;;;20.13;10.63;;;0.50;99.90;;;;;;4972495;28;20034;-77
2021/01/11 05:40:13;;;;;;;21.95;11.15;;;0.50;99.90;;;;;;4985233;28;20084;-77
2021/01/11 05:42:40;;;;;;;22.58;11.15;;;0.40;99.90;;;;;;5001419;28;20042;-76
2021/01/11 05:45:10;;;;;;;21.85;11.05;;;0.40;99.90;;;;;;4976451;28;20166;-76
2021/01/11 05:47:56;;;;;;;21.25;10.27;;;0.50;99.90;;;;;;4982009;28;20061;-76
2021/01/11 05:50:27;;;;;;;27.60;11.25;;;0.50;99.90;;;;;;4949855;28;20090;-76
2021/01/11 05:52:53;;;;;;;23.05;11.60;;;0.50;99.90;;;;;;4945993;29;20039;-76
2021/01/11 05:55:20;;;;;;;24.50;11.75;;;0.50;99.90;;;;;;4946522;28;20031;-77
2021/01/11 05:58:17;;;;;;;20.77;11.15;;;0.50;99.90;;;;;;4975392;28;20035;-76
2021/01/11 06:00:43;;;;;;;22.77;10.73;;;0.60;99.90;;;;;;4977692;28;20121;-76
2021/01/11 06:03:10;;;;;;;23.27;10.50;;;0.50;99.90;;;;;;4985363;28;20741;-78
2021/01/11 06:05:37;;;;;;;20.35;10.60;;;0.50;99.90;;;;;;4977486;28;20674;-77
2021/01/11 06:08:05;;;;;;;24.58;10.70;;;0.50;99.90;;;;;;4955751;28;20806;-77
2021/01/11 06:10:31;;;;;;;21.30;10.88;;;0.50;99.90;;;;;;4974459;28;20038;-77
2021/01/11 06:12:57;;;;;;;20.10;10.85;;;0.50;99.90;;;;;;4986044;28;20510;-78
2021/01/11 06:15:25;;;;;;;21.13;10.93;;;0.50;99.90;;;;;;4960764;28;20076;-77
2021/01/11 06:17:56;;;;;;;21.13;11.48;;;0.50;99.90;;;;;;4958682;28;20031;-76
2021/01/11 06:20:29;;;;;;;21.70;10.68;;;0.50;99.90;;;;;;4960750;28;20066;-77
2021/01/11 06:22:58;;;;;;;25.23;11.48;;;0.50;99.90;;;;;;4957585;28;20042;-77
2021/01/11 06:25:24;;;;;;;21.23;11.57;;;0.50;99.90;;;;;;4972087;28;20038;-77
2021/01/11 06:28:07;;;;;;;21.35;10.57;;;0.50;99.90;;;;;;4944974;28;20042;-77
2021/01/11 06:30:37;;;;;;;21.77;10.93;;;0.50;99.90;;;;;;4965829;28;20039;-78
2021/01/11 06:33:08;;;;;;;21.00;10.80;;;0.50;99.90;;;;;;4973271;28;20047;-78
2021/01/11 06:35:48;;;;;;;24.60;10.82;;;0.50;99.90;;;;;;4969367;28;20045;-78
2021/01/11 06:38:18;;;;;;;24.77;11.27;;;0.50;99.90;;;;;;4969145;28;20542;-78
2021/01/11 06:40:45;;;;;;;22.27;10.52;;;0.50;99.90;;;;;;4961372;28;20034;-78
2021/01/11 06:43:12;;;;;;;24.17;11.15;;;0.50;99.90;;;;;;4976881;28;20125;-77
2021/01/11 06:45:40;;;;;;;20.30;10.45;;;0.60;99.90;;;;;;4945350;28;20210;-78
2021/01/11 06:48:07;;;;;;;22.90;11.50;;;0.50;99.90;;;;;;4944768;28;20528;-78
2021/01/11 06:50:34;;;;;;;19.55;10.63;;;0.60;99.90;;;;;;4944890;28;20042;-78
2021/01/11 06:53:02;;;;;;;23.33;11.00;;;0.50;99.90;;;;;;4960045;28;20039;-78
2021/01/11 06:55:29;;;;;;;21.20;11.13;;;0.60;99.90;;;;;;4952718;28;20176;-72
2021/01/11 06:57:57;;;;;;;21.58;10.30;;;0.60;99.90;;;;;;4967402;28;20167;-73
2021/01/11 07:00:39;;;;;;;22.08;11.00;;;0.60;99.90;;;;;;4961248;28;20754;-70
2021/01/11 07:03:07;;;;;;;23.20;12.70;;;0.60;99.90;;;;;;4965950;28;20034;-74
2021/01/11 07:05:36;;;;;;;20.00;11.32;;;0.70;99.90;;;;;;4962836;28;20081;-75
2021/01/11 07:08:03;;;;;;;23.75;11.98;;;0.70;99.90;;;;;;4968063;28;20753;-75
2021/01/11 07:10:29;;;;;;;22.30;12.05;;;0.60;99.90;;;;;;4964665;28;20552;-75
2021/01/11 07:13:16;;;;;;;22.85;11.15;;;0.70;99.90;;;;;;4964822;28;20043;-75
2021/01/11 07:15:46;;;;;;;26.95;11.52;;;0.70;99.90;;;;;;4974450;28;20485;-77
2021/01/11 07:18:37;;;;;;;23.55;12.27;;;0.70;99.90;;;;;;4970633;28;20034;-75
2021/01/11 07:21:17;;;;;;;21.60;10.93;;;0.70;99.90;;;;;;4962601;28;20035;-75
2021/01/11 07:23:44;;;;;;;21.70;10.60;;;0.70;99.90;;;;;;4966273;28;20053;-75
2021/01/11 07:26:19;;;;;;;27.08;13.40;;;0.80;99.90;;;;;;4986490;28;20065;-75
2021/01/11 07:28:53;;;;;;;18.48;9.82;;;0.70;99.90;;;;;;4978407;28;20134;-75
2021/01/11 07:31:40;;;;;;;25.25;11.90;;;0.70;99.90;;;;;;4963326;28;20157;-75
2021/01/11 07:34:08;;;;;;;27.23;13.02;;;0.70;99.90;;;;;;4956341;28;20030;-74
2021/01/11 07:36:42;;;;;;;16.45;9.50;;;0.80;99.90;;;;;;4960184;28;20026;-75
2021/01/11 07:39:10;;;;;;;21.48;9.60;;;0.80;99.90;;;;;;4974652;28;21015;-75
2021/01/11 07:41:42;;;;;;;17.52;9.48;;;0.80;99.90;;;;;;4971322;28;20037;-75
2021/01/11 07:44:12;;;;;;;19.70;9.80;;;0.80;99.90;;;;;;4981828;28;20097;-78
2021/01/11 07:46:38;;;;;;;19.20;9.68;;;0.80;99.90;;;;;;4972616;28;20038;-76
2021/01/11 07:49:15;;;;;;;19.17;10.32;;;0.70;99.90;;;;;;4962783;28;20042;-75
2021/01/11 07:51:43;;;;;;;18.58;9.27;;;0.80;99.90;;;;;;4954987;28;20361;-80
2021/01/11 07:54:22;;;;;;;18.65;9.70;;;0.80;99.90;;;;;;4968532;28;20045;-74
2021/01/11 07:56:49;;;;;;;17.20;9.80;;;0.90;99.90;;;;;;4961604;28;20101;-74
2021/01/11 07:59:22;;;;;;;21.85;9.95;;;1.00;99.90;;;;;;4966647;28;20811;-77
2021/01/11 08:01:50;;;;;;;19.70;10.02;;;1.00;99.90;;;;;;4963143;28;20034;-78
2021/01/11 08:04:17;;;;;;;18.83;9.45;;;0.90;99.90;;;;;;4971113;28;20034;-76
2021/01/11 08:06:53;;;;;;;17.48;9.38;;;0.90;99.90;;;;;;4945600;28;20053;-76
2021/01/11 08:09:26;;;;;;;21.83;10.65;;;1.00;99.90;;;;;;4958704;28;20038;-78
2021/01/11 08:12:17;;;;;;;21.58;10.27;;;1.00;99.90;;;;;;4964411;28;20117;-77
2021/01/11 08:14:48;;;;;;;20.67;9.55;;;0.90;99.90;;;;;;4952586;28;20128;-75
2021/01/11 08:17:18;;;;;;;17.98;8.57;;;1.00;99.90;;;;;;4962056;28;20031;-76
2021/01/11 08:19:51;;;;;;;19.88;8.73;;;0.80;99.90;;;;;;4960331;28;20151;-77
2021/01/11 08:22:20;;;;;;;17.52;8.85;;;0.80;99.90;;;;;;4965562;28;20439;-77
2021/01/11 08:24:49;;;;;;;19.60;9.52;;;0.90;99.90;;;;;;4969822;28;20042;-77
2021/01/11 08:27:27;;;;;;;20.25;10.38;;;0.90;99.90;;;;;;4965102;28;20038;-76
2021/01/11 08:29:54;;;;;;;19.77;10.85;;;1.10;99.90;;;;;;4962285;28;20122;-77
2021/01/11 08:32:21;;;;;;;15.60;8.40;;;1.00;99.90;;;;;;4962365;28;21088;-77
2021/01/11 08:34:47;;;;;;;16.63;8.32;;;1.00;99.90;;;;;;4962181;28;20117;-76
2021/01/11 08:37:32;;;;;;;16.42;8.68;;;1.00;99.90;;;;;;4978715;28;20097;-76
2021/01/11 08:40:04;;;;;;;24.20;12.30;;;1.00;99.90;;;;;;4961087;28;20864;-77
2021/01/11 08:42:31;;;;;;;15.63;8.20;;;1.20;99.90;;;;;;4958143;28;20039;-78
2021/01/11 08:45:26;;;;;;;21.52;11.18;;;1.10;99.90;;;;;;4965951;28;20033;-78
2021/01/11 08:48:04;;;;;;;16.98;8.82;;;1.30;99.90;;;;;;4944359;28;20036;-79
2021/01/11 08:50:32;;;;;;;15.45;8.13;;;1.20;99.90;;;;;;4973911;28;20037;-80
2021/01/11 08:52:58;;;;;;;16.67;7.43;;;1.20;99.90;;;;;;4968870;28;20084;-77
2021/01/11 08:55:23;;;;;;;12.95;7.38;;;1.20;99.90;;;;;;4945893;28;20691;-79
2021/01/11 08:57:57;;;;;;;15.25;8.10;;;1.20;99.90;;;;;;4965349;28;20448;-76
2021/01/11 09:00:23;;;;;;;21.10;10.60;;;1.20;99.90;;;;;;4959383;28;20035;-81
2021/01/11 09:02:49;;;;;;;15.35;8.00;;;1.20;99.90;;;;;;4952558;28;20135;-77
2021/01/11 09:05:24;;;;;;;14.45;7.78;;;1.30;99.90;;;;;;4966957;28;20188;-76
2021/01/11 09:07:50;;;;;;;13.32;7.43;;;1.40;99.90;;;;;;4959446;28;20136;-76
2021/01/11 09:10:34;;;;;;;18.92;9.20;;;1.40;99.90;;;;;;4968321;28;20039;-77
2021/01/11 09:13:17;;;;;;;15.48;7.40;;;1.40;99.90;;;;;;4966004;28;20041;-77
2021/01/11 09:15:43;;;;;;;14.35;8.07;;;1.40;99.90;;;;;;4959836;28;20085;-77
2021/01/11 09:18:11;;;;;;;17.13;9.05;;;1.50;99.90;;;;;;4966946;28;20943;-77
2021/01/11 09:20:39;;;;;;;14.27;7.82;;;1.40;99.90;;;;;;4969423;28;20046;-77
2021/01/11 09:23:05;;;;;;;14.75;7.65;;;1.50;99.90;;;;;;4965533;28;20035;-76
2021/01/11 09:25:32;;;;;;;14.98;7.57;;;1.50;99.90;;;;;;4961073;28;20555;-73
2021/01/11 09:27:59;;;;;;;12.75;7.45;;;1.50;99.90;;;;;;4946971;28;20054;-79
2021/01/11 09:30:27;;;;;;;17.92;7.80;;;1.60;99.90;;;;;;4968804;28;20053;-78
2021/01/11 09:32:53;;;;;;;13.65;7.50;;;1.50;99.90;;;;;;4960839;28;20128;-80
2021/01/11 09:35:18;;;;;;;15.63;7.13;;;1.50;99.90;;;;;;4959780;28;20035;-79
2021/01/11 09:37:45;;;;;;;12.98;7.50;;;1.60;99.90;;;;;;4969238;28;20562;-79
2021/01/11 09:40:11;;;;;;;13.35;7.75;;;1.60;99.90;;;;;;4957754;28;20038;-79
2021/01/11 09:42:37;;;;;;;13.60;7.13;;;1.50;99.90;;;;;;4967270;28;20050;-77
2021/01/11 09:45:06;;;;;;;14.02;6.95;;;1.50;99.90;;;;;;4947974;28;20562;-77
2021/01/11 09:47:33;;;;;;;17.48;7.80;;;1.50;99.90;;;;;;4972695;28;20046;-78
2021/01/11 09:49:59;;;;;;;14.85;7.47;;;1.60;99.90;;;;;;4968691;28;20045;-78
2021/01/11 09:52:25;;;;;;;13.07;6.88;;;1.50;99.90;;;;;;4960969;28;20051;-78
2021/01/11 09:54:51;;;;;;;14.55;7.05;;;1.60;99.90;;;;;;4948359;28;20038;-79
2021/01/11 09:57:17;;;;;;;15.18;7.30;;;1.50;99.90;;;;;;4969387;28;20065;-78
2021/01/11 09:59:42;;;;;;;14.88;6.90;;;1.50;99.90;;;;;;4970884;28;20033;-73
2021/01/11 10:02:12;;;;;;;15.93;8.40;;;1.60;99.90;;;;;;4975527;28;20586;-77
2021/01/11 10:04:38;;;;;;;13.77;7.20;;;1.60;99.90;;;;;;4961353;28;20173;-78
2021/01/11 10:07:06;;;;;;;13.57;7.10;;;1.60;99.90;;;;;;4944505;28;20529;-78
2021/01/11 10:09:33;;;;;;;13.85;7.13;;;1.70;99.90;;;;;;4970646;28;20600;-77
2021/01/11 10:12:02;;;;;;;13.63;7.22;;;1.70;99.90;;;;;;4968100;28;20042;-78
2021/01/11 10:14:29;;;;;;;15.65;7.30;;;1.70;99.90;;;;;;4955906;28;20038;-78
2021/01/11 10:16:55;;;;;;;13.65;6.65;;;1.60;99.90;;;;;;4970510;28;20027;-77
2021/01/11 10:19:27;;;;;;;13.30;7.25;;;1.60;99.90;;;;;;4965046;28;20030;-78
2021/01/11 10:21:53;;;;;;;13.38;6.47;;;1.60;99.90;;;;;;4977817;28;20051;-79
2021/01/11 10:24:20;;;;;;;13.57;6.50;;;1.60;99.90;;;;;;4968496;28;20038;-78
2021/01/11 10:26:47;;;;;;;14.73;7.10;;;1.60;99.90;;;;;;4969380;28;20053;-79
2021/01/11 10:29:15;;;;;;;15.55;6.65;;;1.60;99.90;;;;;;4968749;28;20050;-78
2021/01/11 10:31:41;;;;;;;11.23;6.57;;;1.70;99.90;;;;;;4962668;28;20075;-78
2021/01/11 10:34:07;;;;;;;12.55;6.68;;;1.80;99.90;;;;;;4960660;28;20126;-79
2021/01/11 10:36:54;;;;;;;12.10;6.20;;;1.80;99.90;;;;;;4969390;28;20064;-80
2021/01/11 10:39:25;;;;;;;12.90;6.05;;;1.80;99.90;;;;;;4965909;28;20042;-78
2021/01/11 10:41:55;;;;;;;12.00;6.65;;;1.80;99.90;;;;;;4942457;28;20034;-78
2021/01/11 10:44:22;;;;;;;11.15;6.68;;;1.80;99.90;;;;;;4966095;28;20046;-77
2021/01/11 10:46:53;;;;;;;15.23;7.30;;;1.80;99.90;;;;;;4975464;28;20038;-77
2021/01/11 10:49:19;;;;;;;12.05;6.07;;;1.80;99.90;;;;;;4955820;28;20047;-74
2021/01/11 10:51:46;;;;;;;15.05;6.40;;;1.80;99.90;;;;;;4950400;28;20364;-73
2021/01/11 10:54:12;;;;;;;16.98;7.03;;;1.70;99.90;;;;;;4965581;28;20059;-78
2021/01/11 10:56:37;;;;;;;13.02;7.18;;;1.70;99.90;;;;;;4968284;28;20031;-75
2021/01/11 10:59:03;;;;;;;16.27;7.55;;;1.70;99.90;;;;;;4962258;28;20099;-80
2021/01/11 11:01:29;;;;;;;11.63;5.88;;;1.60;99.90;;;;;;4962718;28;20034;-76
2021/01/11 11:03:55;;;;;;;13.98;7.43;;;1.60;99.90;;;;;;4966582;28;20035;-76
2021/01/11 11:06:22;;;;;;;14.55;7.22;;;1.60;99.90;;;;;;4946189;28;20040;-76
2021/01/11 11:08:48;;;;;;;11.68;6.45;;;1.60;99.90;;;;;;4950796;28;20034;-77
2021/01/11 11:11:14;;;;;;;11.65;6.00;;;1.50;99.90;;;;;;4965555;28;20562;-71
2021/01/11 11:13:40;;;;;;;12.43;6.13;;;1.50;99.90;;;;;;4956936;28;20067;-76
2021/01/11 11:16:07;;;;;;;12.60;6.13;;;1.50;99.90;;;;;;4965883;28;20128;-76
2021/01/11 11:18:35;;;;;;;11.43;6.65;;;1.50;99.90;;;;;;4967894;28;20127;-76
2021/01/11 11:21:01;;;;;;;12.20;6.60;;;1.50;99.90;;;;;;4954756;28;20041;-73
2021/01/11 11:23:27;;;;;;;14.05;6.57;;;1.50;99.90;;;;;;4963284;28;20035;-74
2021/01/11 11:25:52;;;;;;;11.82;6.25;;;1.50;99.90;;;;;;4964886;28;20095;-73
2021/01/11 11:28:18;;;;;;;11.25;6.75;;;1.50;99.90;;;;;;4948515;28;20062;-73
2021/01/11 11:30:44;;;;;;;11.70;6.32;;;1.50;99.90;;;;;;4961412;28;20638;-76
2021/01/11 11:33:09;;;;;;;10.73;5.75;;;1.50;99.90;;;;;;4942998;28;20039;-77
2021/01/11 11:35:35;;;;;;;11.48;6.03;;;1.60;99.90;;;;;;4962717;28;20058;-77
2021/01/11 11:38:01;;;;;;;11.82;6.13;;;1.60;99.90;;;;;;4965625;28;20478;-75
2021/01/11 11:40:27;;;;;;;14.05;6.13;;;1.70;99.90;;;;;;4969239;28;20387;-74
2021/01/11 11:42:55;;;;;;;10.50;6.32;;;1.70;99.90;;;;;;4963584;28;20030;-76
2021/01/11 11:45:20;;;;;;;12.63;6.00;;;1.80;99.90;;;;;;4979033;28;20050;-73
2021/01/11 11:47:46;;;;;;;15.15;7.20;;;1.80;99.90;;;;;;4967850;28;20774;-74
2021/01/11 11:50:16;;;;;;;10.38;6.18;;;1.70;99.90;;;;;;4962546;28;20573;-73
2021/01/11 11:52:42;;;;;;;11.07;6.05;;;1.70;99.90;;;;;;4961032;28;20041;-76
2021/01/11 11:55:11;;;;;;;11.15;5.57;;;1.80;99.90;;;;;;4966327;28;20073;-75
2021/01/11 11:57:40;;;;;;;9.20;5.38;;;1.70;99.90;;;;;;4961111;28;20065;-76
2021/01/11 12:00:08;;;;;;;11.50;5.72;;;1.80;99.90;;;;;;4958850;28;20837;-76
2021/01/11 12:02:34;;;;;;;10.70;5.90;;;1.70;99.90;;;;;;4970231;28;20038;-76
2021/01/11 12:05:00;;;;;;;12.50;5.72;;;1.80;99.90;;;;;;4983709;28;20030;-76
2021/01/11 12:07:27;;;;;;;11.70;5.95;;;1.70;99.90;;;;;;4964898;28;20045;-75
2021/01/11 12:09:54;;;;;;;11.98;6.30;;;1.60;99.90;;;;;;4947318;28;20030;-76
2021/01/11 12:12:20;;;;;;;11.52;6.18;;;1.60;99.90;;;;;;4970751;28;20093;-78
2021/01/11 12:14:46;;;;;;;12.75;6.28;;;1.50;99.90;;;;;;4950791;28;20030;-76
2021/01/11 12:17:12;;;;;;;12.50;6.28;;;1.50;99.90;;;;;;4965646;28;20462;-76
2021/01/11 12:19:38;;;;;;;12.00;5.85;;;1.50;99.90;;;;;;4960307;28;20045;-76
2021/01/11 12:22:13;;;;;;;14.13;6.80;;;1.50;99.90;;;;;;4959654;28;20027;-76
2021/01/11 12:24:39;;;;;;;12.23;6.22;;;1.50;99.90;;;;;;4967061;28;20142;-75
2021/01/11 12:27:05;;;;;;;12.75;6.90;;;1.40;99.90;;;;;;4966906;28;20585;-79
2021/01/11 12:29:31;;;;;;;16.27;8.75;;;1.50;99.90;;;;;;4965341;28;20038;-72
2021/01/11 12:32:07;;;;;;;39.63;17.38;;;1.50;99.90;;;;;;4969629;28;20045;-76
2021/01/11 12:34:39;;;;;;;18.80;8.40;;;1.50;99.90;;;;;;4960796;28;20034;-74
2021/01/11 12:37:08;;;;;;;12.77;6.80;;;1.40;99.90;;;;;;4960905;28;20686;-76
2021/01/11 12:39:34;;;;;;;12.82;6.30;;;1.30;99.90;;;;;;4961282;28;20121;-73
2021/01/11 12:42:00;;;;;;;17.30;6.88;;;1.30;99.90;;;;;;4966072;28;20037;-75
2021/01/11 12:44:26;;;;;;;14.73;7.10;;;1.30;99.90;;;;;;4965077;28;20037;-73
2021/01/11 12:46:51;;;;;;;13.43;6.65;;;1.20;99.90;;;;;;4959930;28;20803;-74
2021/01/11 12:49:17;;;;;;;16.52;7.47;;;1.20;99.90;;;;;;4965412;28;20041;-74
2021/01/11 12:51:43;;;;;;;14.02;6.97;;;1.20;99.90;;;;;;4962200;28;20407;-74